createdAt,value
2019-05-03T00:02:28.516Z,79.40
2019-05-03T00:05:25.630Z,79.90
2019-05-03T00:08:06.937Z,79.90
2019-05-03T00:10:36.647Z,79.30
2019-05-03T00:13:06.275Z,80.30
2019-05-03T00:16:13.361Z,79.60
2019-05-03T00:18:42.900Z,79.80
2019-05-03T00:21:12.469Z,80.70
2019-05-03T00:23:42.105Z,80.60
2019-05-03T00:26:12.059Z,81.10
2019-05-03T00:28:42.677Z,80.70
2019-05-03T00:31:12.581Z,81.20
2019-05-03T00:33:44.255Z,81.50
2019-05-03T00:36:24.498Z,81.00
2019-05-03T00:38:57.426Z,81.50
2019-05-03T00:41:26.982Z,81.00
2019-05-03T00:43:56.621Z,81.50
2019-05-03T00:46:26.195Z,81.90
2019-05-03T00:48:55.743Z,82.00
2019-05-03T00:51:26.200Z,81.90
2019-05-03T00:53:55.898Z,82.40
2019-05-03T00:56:25.474Z,82.20
2019-05-03T00:58:58.301Z,82.00
2019-05-03T01:01:27.946Z,82.00
2019-05-03T01:03:57.584Z,81.90
2019-05-03T01:06:27.166Z,82.10
2019-05-03T01:08:56.859Z,82.60
2019-05-03T01:11:26.419Z,83.40
2019-05-03T01:13:55.990Z,83.10
2019-05-03T01:16:26.173Z,82.90
2019-05-03T01:18:55.803Z,82.60
2019-05-03T01:21:25.679Z,83.20
2019-05-03T01:23:55.704Z,83.10
2019-05-03T01:26:25.803Z,83.10
2019-05-03T01:28:55.637Z,82.70
2019-05-03T01:31:25.191Z,83.30
2019-05-03T01:33:54.785Z,83.50
2019-05-03T01:36:25.480Z,83.70
2019-05-03T01:38:55.480Z,83.40
2019-05-03T01:41:25.605Z,83.80
2019-05-03T01:43:55.863Z,84.60
2019-05-03T01:46:25.435Z,84.90
2019-05-03T01:49:01.653Z,85.20
2019-05-03T01:51:50.316Z,85.20
2019-05-03T01:54:19.988Z,85.30
2019-05-03T01:56:56.744Z,85.70
2019-05-03T01:59:22.638Z,86.30
2019-05-03T02:02:07.287Z,86.10
2019-05-03T02:04:49.372Z,86.30
2019-05-03T02:07:18.919Z,86.30
2019-05-03T02:09:48.515Z,86.20
2019-05-03T02:12:18.132Z,86.60
2019-05-03T02:14:48.768Z,86.20
2019-05-03T02:17:18.468Z,85.80
2019-05-03T02:19:48.111Z,85.90
2019-05-03T02:22:22.508Z,85.90
2019-05-03T02:24:52.641Z,86.10
2019-05-03T02:27:22.276Z,86.20
2019-05-03T02:29:52.494Z,85.70
2019-05-03T02:32:23.443Z,85.30
2019-05-03T02:34:53.651Z,85.40
2019-05-03T02:37:24.307Z,85.70
2019-05-03T02:39:56.469Z,85.70
2019-05-03T02:42:26.607Z,85.80
2019-05-03T02:44:57.140Z,85.70
2019-05-03T02:47:48.579Z,86.20
2019-05-03T02:50:20.103Z,85.70
2019-05-03T02:52:49.814Z,85.50
2019-05-03T02:55:19.629Z,86.20
2019-05-03T02:57:49.618Z,85.50
2019-05-03T03:00:25.519Z,85.40
2019-05-03T03:02:55.819Z,85.50
2019-05-03T03:05:25.791Z,85.70
2019-05-03T03:07:55.972Z,85.60
2019-05-03T03:10:26.475Z,85.70
2019-05-03T03:12:56.222Z,85.60
2019-05-03T03:15:25.965Z,85.60
2019-05-03T03:17:55.945Z,85.10
2019-05-03T03:20:25.957Z,85.00
2019-05-03T03:22:55.741Z,85.40
2019-05-03T03:25:27.445Z,84.80
2019-05-03T03:28:00.601Z,84.90
2019-05-03T03:31:08.688Z,85.10
2019-05-03T03:33:40.332Z,85.30
2019-05-03T03:36:42.186Z,85.50
2019-05-03T03:38:41.563Z,85.30
2019-05-03T03:41:11.237Z,85.40
2019-05-03T03:43:41.122Z,84.90
2019-05-03T03:46:10.699Z,85.30
2019-05-03T03:48:40.488Z,85.30
2019-05-03T03:51:10.114Z,84.90
2019-05-03T03:53:39.756Z,85.60
2019-05-03T03:56:09.320Z,84.50
2019-05-03T03:58:38.884Z,85.00
2019-05-03T04:01:10.432Z,84.80
2019-05-03T04:03:39.984Z,85.40
2019-05-03T04:06:15.265Z,86.00
2019-05-03T04:08:48.033Z,86.10
2019-05-03T04:11:17.647Z,87.00
2019-05-03T04:13:47.470Z,86.80
2019-05-03T04:16:38.935Z,86.90
2019-05-03T04:19:13.751Z,86.40
2019-05-03T04:21:45.296Z,86.10
2019-05-03T04:24:25.959Z,85.80
2019-05-03T04:27:15.667Z,85.40
2019-05-03T04:29:36.607Z,85.80
2019-05-03T04:32:06.642Z,86.10
2019-05-03T04:34:36.344Z,86.00
2019-05-03T04:37:05.874Z,85.50
2019-05-03T04:39:36.128Z,85.80
2019-05-03T04:42:07.142Z,85.10
2019-05-03T04:44:36.203Z,85.80
2019-05-03T04:47:07.289Z,85.20
2019-05-03T04:49:37.983Z,85.10
2019-05-03T04:52:07.704Z,85.40
2019-05-03T04:54:48.380Z,84.70
2019-05-03T04:57:34.861Z,84.90
2019-05-03T04:59:49.509Z,84.90
2019-05-03T05:02:19.257Z,84.90
2019-05-03T05:04:48.868Z,84.80
2019-05-03T05:07:18.533Z,84.50
2019-05-03T05:09:48.184Z,84.60
2019-05-03T05:12:17.775Z,84.40
2019-05-03T05:14:47.443Z,84.60
2019-05-03T05:17:26.318Z,84.30
2019-05-03T05:20:20.664Z,83.90
2019-05-03T05:22:50.395Z,84.40
2019-05-03T05:25:25.022Z,83.70
2019-05-03T05:28:11.578Z,83.90
2019-05-03T05:30:41.438Z,83.90
2019-05-03T05:33:20.531Z,83.50
2019-05-03T05:35:50.891Z,83.80
2019-05-03T05:38:20.547Z,84.50
2019-05-03T05:40:50.139Z,84.30
2019-05-03T05:43:19.751Z,84.40
2019-05-03T05:45:50.447Z,84.10
2019-05-03T05:48:28.199Z,83.60
2019-05-03T05:50:57.838Z,83.70
2019-05-03T05:53:27.540Z,83.50
2019-05-03T05:56:28.396Z,83.50
2019-05-03T05:59:17.021Z,83.00
2019-05-03T06:01:55.555Z,83.50
2019-05-03T06:04:25.288Z,83.50
2019-05-03T06:07:15.802Z,84.10
2019-05-03T06:10:02.980Z,84.30
2019-05-03T06:12:55.511Z,84.20
2019-05-03T06:15:46.435Z,84.10
2019-05-03T06:18:21.777Z,84.00
2019-05-03T06:21:19.532Z,83.80
2019-05-03T06:24:04.357Z,84.00
2019-05-03T06:26:50.982Z,83.80
2019-05-03T06:29:20.586Z,84.10
2019-05-03T06:32:11.889Z,83.30
2019-05-03T06:34:41.447Z,83.40
2019-05-03T06:37:14.803Z,83.80
2019-05-03T06:39:49.339Z,83.90
2019-05-03T06:42:21.391Z,84.10
2019-05-03T06:44:50.804Z,84.20
2019-05-03T06:47:22.454Z,84.20
2019-05-03T06:49:52.097Z,84.10
2019-05-03T06:52:25.542Z,84.30
2019-05-03T06:55:08.549Z,84.60
2019-05-03T06:57:40.105Z,84.90
2019-05-03T07:00:55.891Z,85.00
2019-05-03T07:03:44.747Z,85.10
2019-05-03T07:06:40.775Z,85.50
2019-05-03T07:09:22.088Z,85.50
2019-05-03T07:11:51.731Z,85.10
2019-05-03T07:14:24.689Z,84.60
2019-05-03T07:16:55.399Z,84.90
2019-05-03T07:19:25.438Z,84.80
2019-05-03T07:21:54.983Z,84.80
2019-05-03T07:24:24.955Z,84.10
2019-05-03T07:26:55.097Z,85.50
2019-05-03T07:29:25.598Z,84.60
2019-05-03T07:31:55.323Z,84.40
2019-05-03T07:34:25.112Z,84.90
2019-05-03T07:36:56.831Z,85.00
2019-05-03T07:39:26.362Z,85.20
2019-05-03T07:41:56.358Z,86.60
2019-05-03T07:44:25.919Z,85.10
2019-05-03T07:46:55.617Z,85.10
2019-05-03T07:49:25.190Z,85.20
2019-05-03T07:51:55.293Z,86.80
2019-05-03T07:54:25.178Z,84.40
2019-05-03T07:57:04.996Z,83.90
2019-05-03T07:59:35.560Z,83.30
2019-05-03T08:02:05.828Z,83.80
2019-05-03T08:04:36.032Z,83.00
2019-05-03T08:07:05.663Z,83.00
2019-05-03T08:09:35.236Z,83.00
2019-05-03T08:12:05.268Z,83.10
2019-05-03T08:14:58.774Z,82.60
2019-05-03T08:17:28.388Z,82.80
2019-05-03T08:19:57.997Z,83.60
2019-05-03T08:22:27.570Z,83.60
2019-05-03T08:24:57.175Z,82.20
2019-05-03T08:27:26.770Z,82.00
2019-05-03T08:29:56.334Z,81.80
2019-05-03T08:32:37.199Z,81.30
2019-05-03T08:42:55.562Z,80.50
2019-05-03T08:46:04.892Z,81.90
2019-05-03T08:52:55.744Z,82.40
2019-05-03T08:55:35.330Z,81.30
2019-05-03T09:01:19.842Z,82.00
2019-05-03T09:04:04.988Z,81.60
2019-05-03T09:06:42.078Z,82.60
2019-05-03T09:09:25.468Z,83.20
2019-05-03T09:12:01.763Z,82.90
2019-05-03T09:14:41.391Z,82.80
2019-05-03T09:17:04.964Z,83.50
2019-05-03T09:19:34.846Z,84.50
2019-05-03T09:22:06.164Z,84.10
2019-05-03T09:24:35.999Z,84.10
2019-05-03T09:27:24.841Z,83.60
2019-05-03T09:29:59.363Z,83.40
2019-05-03T09:32:29.082Z,83.60
2019-05-03T09:34:58.776Z,84.40
2019-05-03T09:37:31.429Z,85.00
2019-05-03T09:40:01.059Z,85.50
2019-05-03T09:42:30.831Z,85.50
2019-05-03T09:45:01.137Z,85.00
2019-05-03T09:47:35.269Z,84.30
2019-05-03T09:50:04.898Z,83.60
2019-05-03T09:52:35.529Z,83.50
2019-05-03T09:55:09.195Z,84.00
2019-05-03T09:57:41.557Z,84.60
2019-05-03T10:00:21.184Z,85.00
2019-05-03T10:02:51.928Z,84.50
2019-05-03T10:05:21.981Z,84.20
2019-05-03T10:07:54.083Z,84.60
2019-05-03T10:10:25.546Z,83.50
2019-05-03T10:12:56.409Z,83.90
2019-05-03T10:15:38.329Z,84.10
2019-05-03T10:18:16.368Z,84.30
2019-05-03T10:20:47.073Z,81.80
2019-05-03T10:23:36.190Z,83.00
2019-05-03T10:26:06.172Z,82.30
2019-05-03T10:28:36.863Z,82.50
2019-05-03T10:31:07.773Z,82.30
2019-05-03T10:33:44.991Z,82.50
2019-05-03T10:36:15.458Z,82.10
2019-05-03T10:38:48.170Z,82.30
2019-05-03T10:41:19.509Z,81.80
2019-05-03T10:43:50.209Z,81.60
2019-05-03T10:46:19.775Z,81.00
2019-05-03T10:48:49.628Z,78.30
2019-05-03T10:51:20.060Z,80.40
2019-05-03T10:53:57.045Z,81.30
2019-05-03T10:56:49.018Z,81.10
2019-05-03T10:59:20.464Z,79.60
2019-05-03T11:02:25.334Z,79.60
2019-05-03T11:04:55.115Z,79.00
2019-05-03T11:07:25.709Z,77.60
2019-05-03T11:09:55.784Z,76.90
2019-05-03T11:12:27.178Z,75.00
2019-05-03T11:14:57.028Z,74.80
2019-05-03T11:17:26.732Z,75.20
2019-05-03T11:19:56.423Z,75.30
2019-05-03T11:22:26.012Z,73.70
2019-05-03T11:24:55.611Z,72.00
2019-05-03T11:27:35.396Z,73.20
2019-05-03T11:30:05.988Z,72.60
2019-05-03T11:32:53.066Z,71.50
2019-05-03T11:35:40.548Z,71.70
2019-05-03T11:38:22.160Z,72.10
2019-05-03T11:40:55.856Z,71.30
2019-05-03T11:43:25.535Z,70.30
2019-05-03T11:45:55.710Z,70.00
2019-05-03T11:48:26.287Z,70.70
2019-05-03T11:50:57.396Z,70.60
2019-05-03T11:53:28.151Z,70.30
2019-05-03T11:55:57.737Z,70.80
2019-05-03T11:58:27.480Z,71.10
2019-05-03T12:01:15.808Z,70.90
2019-05-03T12:03:41.551Z,70.50
2019-05-03T12:06:11.143Z,71.10
2019-05-03T12:08:40.776Z,71.50
2019-05-03T12:11:10.407Z,71.10
2019-05-03T12:13:39.976Z,72.30
2019-05-03T12:16:17.793Z,73.40
2019-05-03T12:18:52.246Z,73.70
2019-05-03T12:21:14.450Z,75.50
2019-05-03T12:23:46.001Z,75.50
2019-05-03T12:26:17.497Z,76.10
2019-05-03T12:28:46.627Z,77.20
2019-05-03T12:31:29.674Z,76.70
2019-05-03T12:33:48.444Z,76.30
2019-05-03T12:36:18.053Z,76.80
2019-05-03T12:38:47.843Z,78.60
2019-05-03T12:41:17.908Z,80.10
2019-05-03T12:43:47.515Z,80.60
2019-05-03T12:46:17.275Z,79.90
2019-05-03T12:48:46.914Z,80.00
2019-05-03T12:51:16.500Z,80.20
2019-05-03T12:53:48.104Z,80.40
2019-05-03T12:56:24.021Z,81.00
2019-05-03T12:58:57.599Z,80.70
2019-05-03T13:01:45.476Z,81.00
2019-05-03T13:04:21.121Z,79.40
2019-05-03T13:06:57.432Z,79.90
2019-05-03T13:09:31.794Z,80.40
2019-05-03T13:12:01.437Z,79.10
2019-05-03T13:14:30.972Z,78.30
2019-05-03T13:17:00.559Z,77.70
2019-05-03T13:19:30.478Z,77.20
2019-05-03T13:22:00.095Z,77.20
2019-05-03T13:24:29.699Z,76.70
2019-05-03T13:26:59.292Z,76.20
2019-05-03T13:29:28.876Z,77.20
2019-05-03T13:32:02.044Z,76.30
2019-05-03T13:34:29.778Z,75.70
2019-05-03T13:37:00.476Z,75.10
2019-05-03T13:39:31.105Z,75.80
2019-05-03T13:42:00.729Z,75.60
2019-05-03T13:44:30.323Z,75.30
2019-05-03T13:47:00.040Z,75.20
2019-05-03T13:49:29.576Z,75.30
2019-05-03T13:51:59.156Z,74.90
2019-05-03T13:54:36.723Z,74.20
2019-05-03T13:57:06.384Z,73.60
2019-05-03T13:59:35.962Z,73.80
2019-05-03T14:02:15.196Z,74.50
2019-05-03T14:04:49.402Z,75.00
2019-05-03T14:07:08.075Z,75.50
2019-05-03T14:09:37.648Z,74.10
2019-05-03T14:12:07.673Z,73.20
2019-05-03T14:14:55.306Z,74.00
2019-05-03T14:17:26.596Z,74.10
2019-05-03T14:20:27.409Z,73.80
2019-05-03T14:22:57.230Z,73.50
2019-05-03T14:25:49.693Z,73.60
2019-05-03T14:28:28.837Z,71.80
2019-05-03T14:31:05.208Z,71.40
2019-05-03T14:33:37.730Z,71.90
2019-05-03T14:36:20.280Z,71.20
2019-05-03T14:38:50.790Z,71.40
2019-05-03T14:41:22.684Z,71.10
2019-05-03T14:44:19.789Z,71.50
2019-05-03T14:46:49.390Z,72.00
2019-05-03T14:49:19.339Z,72.00
2019-05-03T14:52:00.103Z,72.00
2019-05-03T14:54:34.508Z,72.20
2019-05-03T14:57:39.641Z,72.40
2019-05-03T15:03:39.176Z,72.60
2019-05-03T15:06:15.378Z,72.20
2019-05-03T15:08:44.472Z,72.50
2019-05-03T15:11:14.896Z,72.80
2019-05-03T15:13:45.587Z,73.20
2019-05-03T15:16:16.384Z,73.50
2019-05-03T15:18:45.970Z,74.30
2019-05-03T15:21:18.905Z,74.40
2019-05-03T15:24:11.942Z,74.50
2019-05-03T15:26:41.691Z,75.20
2019-05-03T15:29:16.651Z,75.40
2019-05-03T15:31:44.778Z,75.30
2019-05-03T15:34:15.254Z,75.30
2019-05-03T15:36:45.882Z,75.40
2019-05-03T15:39:15.509Z,74.60
2019-05-03T15:41:45.082Z,74.90
2019-05-03T15:44:34.173Z,74.60
2019-05-03T15:47:25.383Z,74.80
2019-05-03T15:49:55.357Z,74.60
2019-05-03T15:52:25.206Z,74.30
2019-05-03T15:54:55.220Z,73.90
2019-05-03T15:57:25.313Z,73.10
2019-05-03T15:59:55.261Z,73.40
2019-05-03T16:02:24.921Z,73.90
2019-05-03T16:04:56.377Z,74.10
2019-05-03T16:07:25.728Z,74.90
2019-05-03T16:09:55.443Z,76.10
2019-05-03T16:12:26.069Z,75.60
2019-05-03T16:14:55.688Z,75.80
2019-05-03T16:17:25.268Z,76.10
2019-05-03T16:19:55.763Z,77.00
2019-05-03T16:22:26.543Z,76.60
2019-05-03T16:24:56.240Z,76.50
2019-05-03T16:27:47.996Z,76.40
2019-05-03T16:30:36.711Z,76.50
2019-05-03T16:33:06.432Z,76.10
2019-05-03T16:35:37.962Z,76.30
2019-05-03T16:38:07.357Z,76.30
2019-05-03T16:40:37.014Z,76.10
2019-05-03T16:43:06.638Z,75.80
2019-05-03T16:45:36.192Z,75.90
2019-05-03T16:48:05.843Z,75.10
2019-05-03T16:50:35.421Z,74.60
2019-05-03T16:53:05.567Z,75.00
2019-05-03T16:55:35.353Z,74.90
2019-05-03T16:58:05.055Z,74.50
2019-05-03T17:00:35.279Z,74.30
2019-05-03T17:03:05.636Z,74.20
2019-05-03T17:05:51.028Z,74.00
2019-05-03T17:08:29.771Z,74.00
2019-05-03T17:11:00.598Z,74.40
2019-05-03T17:13:30.170Z,74.30
2019-05-03T17:15:59.719Z,74.70
2019-05-03T17:18:29.351Z,74.90
2019-05-03T17:20:59.020Z,75.30
2019-05-03T17:23:28.711Z,75.70
2019-05-03T17:25:59.456Z,75.90
2019-05-03T17:28:29.139Z,75.90
2019-05-03T17:30:58.859Z,76.40
2019-05-03T17:33:28.429Z,76.50
2019-05-03T17:35:58.819Z,77.20
2019-05-03T17:38:28.498Z,77.40
2019-05-03T17:41:10.478Z,77.70
2019-05-03T17:44:06.307Z,77.90
2019-05-03T17:46:35.965Z,78.80
2019-05-03T17:49:05.569Z,78.80
2019-05-03T17:51:52.827Z,78.90
2019-05-03T17:54:56.628Z,79.00
2019-05-03T17:57:51.474Z,79.00
2019-05-03T18:00:38.535Z,79.10
2019-05-03T18:03:08.827Z,79.20
2019-05-03T18:05:44.917Z,78.90
2019-05-03T18:08:35.425Z,78.90
2019-05-03T18:11:14.731Z,78.90
2019-05-03T18:13:45.529Z,79.50
2019-05-03T18:16:15.432Z,78.80
2019-05-03T18:18:45.471Z,78.60
2019-05-03T18:21:15.274Z,78.00
2019-05-03T18:23:45.529Z,77.90
2019-05-03T18:26:15.235Z,77.90
2019-05-03T18:28:44.861Z,77.90
2019-05-03T18:31:14.707Z,77.40
2019-05-03T18:33:45.495Z,77.50
2019-05-03T18:36:15.228Z,77.40
2019-05-03T18:38:44.798Z,77.30
2019-05-03T18:41:14.751Z,75.40
2019-05-03T18:44:05.085Z,74.30
2019-05-03T18:46:56.003Z,74.10
2019-05-03T18:49:25.721Z,74.00
2019-05-03T18:51:56.762Z,74.00
2019-05-03T18:54:26.471Z,74.90
2019-05-03T18:56:57.057Z,74.60
2019-05-03T18:59:26.624Z,74.70
2019-05-03T19:01:58.343Z,74.70
2019-05-03T19:04:50.083Z,74.60
2019-05-03T19:07:38.486Z,74.70
2019-05-03T19:10:41.912Z,75.60
2019-05-03T19:13:16.437Z,75.80
2019-05-03T19:15:49.932Z,76.10
2019-05-03T19:18:26.744Z,75.30
2019-05-03T19:20:56.993Z,75.50
2019-05-03T19:23:26.963Z,75.70
2019-05-03T19:25:57.078Z,75.60
2019-05-03T19:28:26.923Z,75.60
2019-05-03T19:30:56.885Z,75.70
2019-05-03T19:33:29.434Z,75.70
2019-05-03T19:36:00.331Z,75.30
2019-05-03T19:38:29.671Z,75.20
2019-05-03T19:40:59.352Z,76.00
2019-05-03T19:43:29.757Z,76.00
2019-05-03T19:46:04.574Z,76.60
2019-05-03T19:48:35.585Z,77.10
2019-05-03T19:51:05.768Z,77.50
2019-05-03T19:53:49.490Z,77.80
2019-05-03T19:56:25.580Z,78.00
2019-05-03T19:59:00.376Z,77.90
2019-05-03T20:01:45.333Z,77.60
2019-05-03T20:04:34.123Z,77.40
2019-05-03T20:07:34.713Z,77.40
2019-05-03T20:10:09.679Z,77.30
2019-05-03T20:12:43.576Z,77.50
2019-05-03T20:15:14.552Z,77.60
2019-05-03T20:17:54.656Z,77.50
2019-05-03T20:20:16.871Z,77.90
2019-05-03T20:22:48.084Z,77.90
2019-05-03T20:25:30.146Z,77.80
2019-05-03T20:28:04.865Z,77.20
2019-05-03T20:30:37.182Z,77.10
2019-05-03T20:33:08.211Z,77.30
2019-05-03T20:35:45.184Z,76.70
2019-05-03T20:38:17.004Z,76.40
2019-05-03T20:40:46.692Z,76.60
2019-05-03T20:43:36.227Z,76.60
2019-05-03T20:46:31.688Z,76.50
2019-05-03T20:49:04.519Z,76.70
2019-05-03T20:51:37.556Z,76.70
2019-05-03T20:54:07.305Z,76.30
2019-05-03T20:56:37.167Z,76.30
2019-05-03T20:59:08.960Z,76.50
2019-05-03T21:01:39.729Z,76.70
2019-05-03T21:04:10.743Z,77.10
2019-05-03T21:06:39.892Z,77.50
2019-05-03T21:09:11.733Z,77.70
2019-05-03T21:11:42.127Z,77.30
2019-05-03T21:14:11.943Z,77.20
2019-05-03T21:16:54.544Z,76.60
2019-05-03T21:19:46.239Z,76.50
2019-05-03T21:22:30.878Z,76.50
2019-05-03T21:25:19.635Z,76.40
2019-05-03T21:27:49.688Z,76.20
2019-05-03T21:30:24.679Z,76.40
2019-05-03T21:32:56.452Z,76.80
2019-05-03T21:35:39.390Z,76.90
2019-05-03T21:38:00.405Z,77.30
2019-05-03T21:40:31.073Z,77.80
2019-05-03T21:43:00.636Z,77.80
2019-05-03T21:45:37.774Z,78.30
2019-05-03T21:48:14.903Z,78.00
2019-05-03T21:50:44.702Z,77.80
2019-05-03T21:53:14.801Z,77.50
2019-05-03T21:55:48.488Z,77.70
2019-05-03T21:58:18.079Z,78.00
2019-05-03T22:00:54.657Z,78.30
2019-05-03T22:03:25.263Z,78.50
2019-05-03T22:05:58.014Z,78.70
2019-05-03T22:08:27.451Z,78.90
2019-05-03T22:10:59.087Z,78.90
2019-05-03T22:13:28.679Z,79.10
2019-05-03T22:16:24.616Z,79.10
2019-05-03T22:19:03.800Z,78.60
2019-05-03T22:21:41.749Z,78.60
2019-05-03T22:24:33.185Z,78.90
2019-05-03T22:27:06.983Z,78.80
2019-05-03T22:29:36.739Z,79.90
2019-05-03T22:32:06.418Z,79.70
2019-05-03T22:34:35.970Z,79.80
2019-05-03T22:37:06.636Z,80.20
2019-05-03T22:39:36.242Z,80.20
2019-05-03T22:42:05.836Z,80.40
2019-05-03T22:44:36.543Z,80.30
2019-05-03T22:47:06.120Z,80.40
2019-05-03T22:49:37.240Z,80.70
2019-05-03T22:52:07.026Z,80.90
2019-05-03T22:54:36.699Z,80.80
2019-05-03T22:57:06.279Z,81.20
2019-05-03T22:59:35.824Z,81.40
2019-05-03T23:02:08.962Z,81.30
2019-05-03T23:04:38.527Z,81.10
2019-05-03T23:07:08.111Z,81.10
2019-05-03T23:09:37.798Z,81.10
2019-05-03T23:12:07.384Z,81.10
2019-05-03T23:14:39.325Z,81.10
2019-05-03T23:17:10.516Z,81.00
2019-05-03T23:19:42.379Z,81.30
2019-05-03T23:22:18.721Z,81.10
2019-05-03T23:24:48.355Z,81.30
2019-05-03T23:27:17.964Z,81.10
2019-05-03T23:29:47.514Z,81.00
2019-05-03T23:32:17.108Z,80.60
2019-05-03T23:34:46.703Z,80.40
2019-05-03T23:37:16.276Z,80.20
2019-05-03T23:39:55.191Z,79.90
2019-05-03T23:42:25.135Z,79.70
2019-05-03T23:44:56.278Z,79.20
2019-05-03T23:47:32.060Z,78.90
2019-05-03T23:50:02.021Z,79.10
2019-05-03T23:52:35.529Z,78.80
2019-05-03T23:55:11.611Z,78.90
2019-05-03T23:57:41.135Z,79.10
